createdAt,value
2023-05-09T00:01:08.692Z,24.47
2023-05-09T00:03:37.878Z,23.70
2023-05-09T00:06:09.326Z,23.27
2023-05-09T00:08:38.779Z,20.83
2023-05-09T00:11:07.984Z,21.87
2023-05-09T00:13:37.707Z,21.33
2023-05-09T00:16:07.685Z,20.77
2023-05-09T00:18:37.010Z,19.47
2023-05-09T00:21:07.882Z,18.67
2023-05-09T00:23:37.560Z,17.90
2023-05-09T00:26:07.113Z,17.43
2023-05-09T00:28:36.276Z,18.60
2023-05-09T00:31:05.756Z,18.77
2023-05-09T00:33:35.009Z,18.53
2023-05-09T00:36:04.279Z,18.80
2023-05-09T00:38:35.343Z,17.70
2023-05-09T00:41:04.694Z,18.33
2023-05-09T00:43:33.805Z,18.33
2023-05-09T00:46:03.212Z,18.70
2023-05-09T00:48:32.592Z,17.13
2023-05-09T00:51:01.885Z,18.10
2023-05-09T00:53:31.333Z,16.87
2023-05-09T00:56:02.382Z,18.20
2023-05-09T00:58:32.105Z,17.67
2023-05-09T01:01:02.560Z,16.30
2023-05-09T01:03:32.634Z,16.30
2023-05-09T01:06:08.516Z,17.00
2023-05-09T01:08:45.696Z,15.67
2023-05-09T01:11:24.279Z,14.80
2023-05-09T01:14:07.563Z,15.93
2023-05-09T01:16:41.253Z,14.97
2023-05-09T01:19:29.088Z,15.70
2023-05-09T01:22:01.250Z,16.27
2023-05-09T01:25:03.411Z,15.13
2023-05-09T01:27:45.558Z,16.60
2023-05-09T01:30:18.915Z,15.37
2023-05-09T01:32:51.400Z,14.63
2023-05-09T01:35:25.988Z,15.83
2023-05-09T01:37:56.195Z,16.37
2023-05-09T01:40:29.958Z,16.17
2023-05-09T01:43:01.645Z,15.80
2023-05-09T01:45:34.364Z,16.60
2023-05-09T01:48:04.266Z,16.30
2023-05-09T01:50:34.913Z,15.93
2023-05-09T01:53:04.571Z,14.60
2023-05-09T01:55:38.433Z,15.67
2023-05-09T01:58:08.553Z,16.07
2023-05-09T02:00:39.568Z,16.40
2023-05-09T02:03:10.098Z,15.30
2023-05-09T02:05:40.491Z,15.63
2023-05-09T02:08:10.685Z,14.63
2023-05-09T02:10:40.210Z,16.63
2023-05-09T02:13:09.662Z,15.33
2023-05-09T02:15:41.349Z,15.67
2023-05-09T02:18:11.177Z,15.77
2023-05-09T02:20:40.516Z,14.80
2023-05-09T02:23:10.281Z,15.50
2023-05-09T02:25:40.698Z,15.77
2023-05-09T02:28:10.940Z,14.87
2023-05-09T02:30:45.805Z,14.73
2023-05-09T02:33:16.041Z,15.10
2023-05-09T02:35:47.329Z,15.60
2023-05-09T02:38:17.228Z,15.60
2023-05-09T02:40:49.822Z,15.30
2023-05-09T02:43:20.885Z,15.57
2023-05-09T02:45:52.751Z,15.10
2023-05-09T02:48:22.195Z,14.90
2023-05-09T02:50:51.551Z,14.37
2023-05-09T02:53:20.751Z,15.50
2023-05-09T02:55:50.723Z,14.93
2023-05-09T02:58:20.060Z,15.70
2023-05-09T03:00:49.480Z,14.23
2023-05-09T03:03:22.477Z,14.93
2023-05-09T03:05:53.092Z,15.23
2023-05-09T03:08:22.360Z,15.17
2023-05-09T03:10:51.706Z,15.70
2023-05-09T03:13:21.243Z,15.00
2023-05-09T03:15:50.549Z,15.73
2023-05-09T03:18:21.650Z,14.70
2023-05-09T03:20:51.252Z,14.97
2023-05-09T03:23:20.893Z,15.10
2023-05-09T03:25:50.040Z,14.40
2023-05-09T03:28:19.963Z,13.43
2023-05-09T03:30:49.656Z,14.20
2023-05-09T03:33:22.308Z,13.97
2023-05-09T03:35:51.886Z,14.27
2023-05-09T03:38:21.164Z,15.33
2023-05-09T03:40:50.356Z,13.70
2023-05-09T03:43:20.191Z,15.33
2023-05-09T03:45:49.413Z,14.77
2023-05-09T03:48:18.803Z,14.60
2023-05-09T03:50:53.941Z,13.93
2023-05-09T03:53:24.511Z,15.03
2023-05-09T03:55:55.245Z,14.13
2023-05-09T03:58:25.499Z,12.83
2023-05-09T04:00:54.828Z,11.73
2023-05-09T04:03:26.005Z,12.37
2023-05-09T04:05:58.182Z,12.77
2023-05-09T04:08:38.228Z,11.90
2023-05-09T04:11:07.870Z,13.15
2023-05-09T04:13:39.118Z,11.45
2023-05-09T04:16:17.328Z,11.90
2023-05-09T04:18:46.461Z,12.32
2023-05-09T04:21:17.566Z,11.68
2023-05-09T04:23:50.371Z,11.70
2023-05-09T04:26:25.022Z,11.68
2023-05-09T04:28:57.234Z,11.80
2023-05-09T04:31:26.869Z,11.65
2023-05-09T04:33:58.550Z,11.60
2023-05-09T04:36:30.271Z,11.32
2023-05-09T04:39:00.701Z,11.70
2023-05-09T04:41:31.364Z,12.38
2023-05-09T04:44:01.024Z,12.23
2023-05-09T04:46:30.551Z,12.65
2023-05-09T04:49:00.358Z,12.20
2023-05-09T04:51:31.048Z,11.68
2023-05-09T04:54:00.436Z,11.50
2023-05-09T04:56:34.445Z,11.98
2023-05-09T04:59:03.887Z,11.95
2023-05-09T05:01:33.281Z,10.45
2023-05-09T05:04:03.131Z,11.07
2023-05-09T05:06:36.112Z,11.15
2023-05-09T05:09:06.224Z,9.43
2023-05-09T05:11:35.637Z,10.40
2023-05-09T05:14:06.525Z,10.30
2023-05-09T05:16:36.374Z,10.75
2023-05-09T05:19:06.017Z,9.73
2023-05-09T05:21:40.866Z,10.18
2023-05-09T05:24:11.176Z,9.82
2023-05-09T05:26:40.431Z,9.85
2023-05-09T05:29:09.669Z,9.93
2023-05-09T05:31:39.266Z,10.02
2023-05-09T05:34:08.596Z,10.25
2023-05-09T05:36:39.803Z,10.35
2023-05-09T05:39:09.316Z,10.32
2023-05-09T05:41:38.612Z,9.82
2023-05-09T05:44:09.414Z,10.05
2023-05-09T05:46:38.786Z,10.10
2023-05-09T05:49:08.212Z,10.85
2023-05-09T05:51:37.739Z,10.35
2023-05-09T05:54:10.019Z,9.98
2023-05-09T05:56:39.413Z,9.80
2023-05-09T05:59:11.316Z,9.48
2023-05-09T06:01:42.029Z,8.80
2023-05-09T06:04:11.599Z,8.25
2023-05-09T06:06:40.924Z,8.00
2023-05-09T06:09:11.641Z,7.47
2023-05-09T06:11:41.091Z,7.40
2023-05-09T06:14:10.593Z,7.45
2023-05-09T06:16:40.215Z,7.13
2023-05-09T06:19:11.428Z,7.25
2023-05-09T06:21:40.999Z,7.80
2023-05-09T06:24:23.416Z,7.30
2023-05-09T06:27:01.182Z,6.60
2023-05-09T06:29:30.493Z,7.38
2023-05-09T06:31:59.856Z,6.65
2023-05-09T06:34:29.178Z,6.68
2023-05-09T06:36:58.631Z,6.50
2023-05-09T06:39:29.332Z,6.70
2023-05-09T06:41:59.168Z,5.82
2023-05-09T06:44:33.713Z,5.55
2023-05-09T06:47:03.017Z,4.50
2023-05-09T06:49:32.309Z,5.03
2023-05-09T06:52:02.374Z,4.60
2023-05-09T06:54:33.037Z,3.80
2023-05-09T06:57:02.455Z,3.95
2023-05-09T06:59:31.636Z,3.72
2023-05-09T07:02:01.350Z,3.83
2023-05-09T07:04:30.702Z,2.90
2023-05-09T07:07:01.166Z,3.30
2023-05-09T07:09:30.857Z,3.10
2023-05-09T07:12:01.965Z,3.10
2023-05-09T07:14:31.463Z,3.00
2023-05-09T07:17:18.099Z,2.85
2023-05-09T07:19:51.880Z,2.58
2023-05-09T07:22:21.576Z,2.90
2023-05-09T07:24:52.542Z,2.75
2023-05-09T07:27:24.382Z,2.30
2023-05-09T07:29:54.546Z,2.50
2023-05-09T07:32:23.807Z,2.60
2023-05-09T07:34:53.087Z,2.40
2023-05-09T07:37:22.756Z,2.45
2023-05-09T07:39:52.293Z,2.10
2023-05-09T07:42:22.834Z,2.30
2023-05-09T07:44:52.119Z,2.78
2023-05-09T07:47:21.481Z,2.42
2023-05-09T07:49:50.932Z,1.95
2023-05-09T07:52:20.200Z,2.42
2023-05-09T07:54:49.702Z,2.55
2023-05-09T07:57:19.173Z,2.90
2023-05-09T07:59:49.810Z,2.40
2023-05-09T08:02:19.264Z,2.60
2023-05-09T08:04:49.215Z,2.83
2023-05-09T08:07:18.751Z,2.80
2023-05-09T08:09:47.980Z,4.18
2023-05-09T08:12:17.403Z,3.13
2023-05-09T08:14:47.173Z,1.85
2023-05-09T08:17:17.974Z,2.20
2023-05-09T08:19:47.248Z,2.63
2023-05-09T08:22:19.883Z,2.72
2023-05-09T08:24:49.555Z,2.35
2023-05-09T08:27:19.058Z,2.28
2023-05-09T08:29:48.368Z,2.10
2023-05-09T08:32:20.166Z,2.38
2023-05-09T08:34:49.479Z,2.22
2023-05-09T08:37:19.008Z,2.40
2023-05-09T08:39:48.324Z,2.33
2023-05-09T08:42:20.892Z,2.38
2023-05-09T08:44:50.149Z,2.53
2023-05-09T08:47:22.065Z,2.53
2023-05-09T08:49:52.815Z,2.28
2023-05-09T08:52:22.296Z,2.55
2023-05-09T08:54:53.653Z,2.58
2023-05-09T08:57:23.014Z,2.13
2023-05-09T08:59:53.973Z,2.30
2023-05-09T09:02:25.088Z,2.30
2023-05-09T09:04:55.835Z,2.47
2023-05-09T09:07:27.977Z,2.33
2023-05-09T09:10:00.462Z,2.00
2023-05-09T09:12:29.957Z,2.20
2023-05-09T09:15:05.135Z,2.15
2023-05-09T09:17:42.077Z,2.60
2023-05-09T09:20:14.861Z,2.17
2023-05-09T09:22:45.556Z,2.33
2023-05-09T09:25:14.860Z,3.20
2023-05-09T09:27:44.314Z,2.22
2023-05-09T09:30:15.493Z,2.30
2023-05-09T09:32:46.379Z,2.60
2023-05-09T09:35:15.732Z,2.10
2023-05-09T09:37:45.019Z,1.92
2023-05-09T09:40:15.477Z,2.47
2023-05-09T09:42:46.130Z,2.60
2023-05-09T09:45:17.904Z,2.47
2023-05-09T09:47:50.461Z,1.90
2023-05-09T09:50:23.554Z,2.28
2023-05-09T09:52:54.057Z,2.38
2023-05-09T09:55:24.572Z,2.28
2023-05-09T09:57:54.455Z,2.20
2023-05-09T10:00:27.986Z,2.17
2023-05-09T10:03:00.120Z,2.40
2023-05-09T10:05:30.722Z,2.10
2023-05-09T10:08:02.118Z,2.00
2023-05-09T10:10:32.856Z,2.22
2023-05-09T10:13:04.488Z,2.20
2023-05-09T10:15:49.212Z,2.63
2023-05-09T10:18:24.387Z,2.40
2023-05-09T10:20:55.507Z,2.47
2023-05-09T10:23:27.187Z,2.53
2023-05-09T10:26:06.936Z,2.20
2023-05-09T10:28:40.775Z,2.22
2023-05-09T10:31:17.684Z,2.45
2023-05-09T10:33:51.409Z,3.03
2023-05-09T10:36:22.487Z,2.47
2023-05-09T10:38:53.028Z,2.00
2023-05-09T10:41:24.105Z,2.20
2023-05-09T10:43:54.266Z,2.38
2023-05-09T10:46:24.971Z,2.22
2023-05-09T10:48:56.370Z,2.53
2023-05-09T10:51:26.449Z,3.42
2023-05-09T10:53:56.435Z,2.63
2023-05-09T10:56:27.837Z,2.30
2023-05-09T10:58:57.663Z,2.20
2023-05-09T11:01:35.507Z,2.53
2023-05-09T11:04:13.052Z,2.35
2023-05-09T11:06:49.660Z,2.00
2023-05-09T11:09:28.484Z,2.00
2023-05-09T11:12:00.777Z,2.25
2023-05-09T11:14:34.858Z,2.45
2023-05-09T11:17:06.797Z,2.58
2023-05-09T11:19:59.878Z,2.53
2023-05-09T11:22:32.834Z,2.67
2023-05-09T11:25:06.174Z,2.20
2023-05-09T11:27:44.878Z,2.00
2023-05-09T11:30:16.421Z,2.25
2023-05-09T11:32:48.577Z,2.13
2023-05-09T11:35:21.099Z,2.72
2023-05-09T11:37:52.691Z,2.40
2023-05-09T11:40:23.409Z,2.60
2023-05-09T11:42:58.094Z,2.63
2023-05-09T11:45:30.266Z,2.30
2023-05-09T11:48:00.907Z,2.13
2023-05-09T11:50:32.066Z,2.03
2023-05-09T11:53:01.497Z,2.30
2023-05-09T11:55:32.833Z,2.20
2023-05-09T11:58:02.114Z,2.28
2023-05-09T12:00:32.138Z,2.50
2023-05-09T12:03:01.736Z,2.50
2023-05-09T12:05:33.564Z,2.25
2023-05-09T12:08:06.093Z,2.28
2023-05-09T12:10:39.740Z,2.47
2023-05-09T12:13:09.157Z,2.60
2023-05-09T12:15:38.998Z,2.10
2023-05-09T12:18:09.584Z,2.20
2023-05-09T12:20:45.645Z,2.25
2023-05-09T12:23:16.193Z,2.13
2023-05-09T12:25:54.789Z,1.95
2023-05-09T12:28:25.672Z,2.30
2023-05-09T12:30:56.425Z,2.10
2023-05-09T12:33:26.512Z,2.15
2023-05-09T12:36:07.244Z,2.17
2023-05-09T12:38:36.607Z,2.22
2023-05-09T12:41:18.221Z,2.50
2023-05-09T12:43:52.441Z,2.20
2023-05-09T12:46:22.715Z,2.15
2023-05-09T12:48:52.051Z,1.90
2023-05-09T12:51:23.540Z,2.40
2023-05-09T12:53:53.420Z,2.20
2023-05-09T12:56:23.976Z,2.20
2023-05-09T12:58:54.857Z,1.92
2023-05-09T13:01:31.098Z,1.92
2023-05-09T13:04:05.273Z,2.08
2023-05-09T13:06:36.448Z,2.50
2023-05-09T13:09:08.366Z,1.80
2023-05-09T13:11:38.193Z,2.25
2023-05-09T13:14:07.398Z,2.15
2023-05-09T13:16:36.959Z,2.00
2023-05-09T13:19:06.717Z,2.47
2023-05-09T13:21:37.710Z,2.08
2023-05-09T13:24:07.717Z,2.22
2023-05-09T13:26:37.401Z,2.55
2023-05-09T13:29:06.605Z,2.13
2023-05-09T13:31:36.035Z,2.28
2023-05-09T13:34:05.475Z,2.30
2023-05-09T13:36:34.693Z,2.10
2023-05-09T13:39:05.513Z,2.15
2023-05-09T13:41:36.880Z,2.17
2023-05-09T13:44:07.440Z,2.30
2023-05-09T13:46:37.401Z,2.63
2023-05-09T13:49:06.982Z,2.38
2023-05-09T13:51:36.230Z,2.10
2023-05-09T13:54:13.237Z,2.33
2023-05-09T13:56:43.327Z,2.70
2023-05-09T13:59:13.592Z,2.40
2023-05-09T14:01:43.007Z,2.45
2023-05-09T14:04:12.632Z,2.85
2023-05-09T14:06:48.327Z,2.17
2023-05-09T14:09:19.581Z,2.42
2023-05-09T14:11:48.898Z,2.20
2023-05-09T14:14:18.308Z,2.03
2023-05-09T14:16:47.723Z,2.13
2023-05-09T14:19:17.458Z,2.22
2023-05-09T14:21:48.294Z,2.30
2023-05-09T14:24:18.936Z,2.15
2023-05-09T14:26:48.136Z,2.08
2023-05-09T14:29:18.623Z,2.35
2023-05-09T14:31:48.251Z,2.25
2023-05-09T14:34:17.451Z,2.00
2023-05-09T14:36:47.012Z,2.17
2023-05-09T14:39:17.896Z,2.08
2023-05-09T14:41:49.329Z,2.22
2023-05-09T14:44:18.690Z,2.38
2023-05-09T14:46:48.497Z,2.10
2023-05-09T14:49:17.778Z,1.85
2023-05-09T14:51:46.990Z,2.00
2023-05-09T14:54:17.642Z,2.17
2023-05-09T14:56:46.923Z,2.63
2023-05-09T14:59:16.696Z,2.45
2023-05-09T15:01:47.263Z,2.30
2023-05-09T15:04:16.508Z,2.40
2023-05-09T15:06:46.847Z,2.20
2023-05-09T15:09:19.244Z,2.15
2023-05-09T15:11:49.374Z,2.10
2023-05-09T15:14:18.837Z,2.30
2023-05-09T15:16:48.581Z,2.05
2023-05-09T15:19:17.976Z,2.50
2023-05-09T15:21:47.330Z,2.10
2023-05-09T15:24:17.993Z,2.50
2023-05-09T15:26:47.246Z,2.75
2023-05-09T15:29:16.521Z,2.22
2023-05-09T15:31:45.808Z,2.28
2023-05-09T15:34:15.393Z,2.20
2023-05-09T15:36:44.886Z,2.50
2023-05-09T15:39:14.981Z,2.30
2023-05-09T15:41:45.820Z,2.75
2023-05-09T15:44:15.280Z,2.40
2023-05-09T15:46:44.563Z,2.40
2023-05-09T15:49:14.009Z,2.53
2023-05-09T15:51:43.881Z,1.93
2023-05-09T15:54:13.151Z,2.28
2023-05-09T15:56:42.469Z,2.60
2023-05-09T15:59:13.244Z,2.35
2023-05-09T16:01:42.690Z,2.42
2023-05-09T16:04:14.130Z,2.45
2023-05-09T16:06:43.496Z,2.60
2023-05-09T16:09:13.726Z,2.40
2023-05-09T16:11:43.585Z,2.40
2023-05-09T16:14:14.505Z,2.20
2023-05-09T16:16:44.299Z,2.40
2023-05-09T16:19:13.448Z,2.40
2023-05-09T16:21:42.757Z,2.13
2023-05-09T16:24:12.137Z,2.30
2023-05-09T16:26:41.555Z,2.45
2023-05-09T16:29:11.479Z,2.47
2023-05-09T16:31:42.434Z,2.30
2023-05-09T16:34:12.414Z,2.78
2023-05-09T16:36:41.649Z,2.40
2023-05-09T16:39:11.019Z,2.22
2023-05-09T16:41:40.209Z,2.30
2023-05-09T16:44:09.484Z,2.20
2023-05-09T16:46:38.703Z,2.33
2023-05-09T16:49:09.520Z,2.65
2023-05-09T16:51:38.958Z,2.33
2023-05-09T16:54:08.299Z,2.53
2023-05-09T16:56:37.494Z,2.20
2023-05-09T16:59:06.679Z,2.30
2023-05-09T17:01:36.149Z,2.42
2023-05-09T17:04:07.012Z,2.10
2023-05-09T17:06:37.765Z,2.22
2023-05-09T17:09:07.240Z,2.60
2023-05-09T17:11:36.926Z,2.75
2023-05-09T17:14:06.129Z,2.85
2023-05-09T17:16:37.966Z,2.80
2023-05-09T17:19:07.682Z,2.40
2023-05-09T17:21:41.822Z,2.33
2023-05-09T17:24:11.642Z,2.40
2023-05-09T17:26:41.405Z,2.95
2023-05-09T17:29:11.170Z,3.00
2023-05-09T17:31:41.160Z,2.90
2023-05-09T17:34:11.017Z,2.50
2023-05-09T17:36:42.321Z,3.00
2023-05-09T17:39:12.863Z,3.13
2023-05-09T17:41:42.952Z,2.90
2023-05-09T17:44:13.969Z,3.30
2023-05-09T17:46:44.328Z,3.13
2023-05-09T17:49:14.378Z,3.23
2023-05-09T17:51:45.662Z,2.60
2023-05-09T17:54:16.196Z,3.33
2023-05-09T17:56:45.976Z,3.17
2023-05-09T17:59:15.904Z,3.20
2023-05-09T18:01:45.784Z,3.10
2023-05-09T18:04:16.315Z,3.47
2023-05-09T18:06:47.796Z,3.37
2023-05-09T18:09:17.818Z,3.13
2023-05-09T18:11:47.743Z,3.50
2023-05-09T18:14:18.268Z,3.53
2023-05-09T18:16:48.132Z,3.27
2023-05-09T18:19:18.163Z,3.40
2023-05-09T18:21:49.685Z,3.73
2023-05-09T18:24:22.027Z,3.90
2023-05-09T18:26:52.153Z,4.33
2023-05-09T18:29:21.962Z,4.23
2023-05-09T18:31:52.410Z,4.63
2023-05-09T18:34:22.700Z,4.20
2023-05-09T18:36:54.207Z,5.07
2023-05-09T18:39:24.243Z,4.70
2023-05-09T18:41:54.913Z,4.40
2023-05-09T18:44:25.650Z,3.80
2023-05-09T18:46:55.704Z,5.03
2023-05-09T18:49:26.705Z,5.13
2023-05-09T18:52:00.848Z,4.53
2023-05-09T18:54:30.969Z,4.60
2023-05-09T18:57:03.451Z,4.40
2023-05-09T18:59:34.826Z,4.67
2023-05-09T19:02:06.077Z,5.00
2023-05-09T19:04:36.899Z,4.20
2023-05-09T19:07:10.833Z,4.97
2023-05-09T19:09:41.338Z,4.30
2023-05-09T19:12:13.422Z,4.43
2023-05-09T19:14:45.290Z,4.30
2023-05-09T19:17:17.836Z,4.33
2023-05-09T19:19:50.458Z,4.70
2023-05-09T19:25:11.312Z,4.67
2023-05-09T19:27:41.725Z,5.17
2023-05-09T19:30:16.221Z,5.27
2023-05-09T19:32:48.394Z,5.13
2023-05-09T19:35:19.266Z,5.50
2023-05-09T19:37:51.862Z,5.50
2023-05-09T19:40:22.983Z,5.20
2023-05-09T19:42:54.981Z,6.27
2023-05-09T19:45:27.351Z,5.80
2023-05-09T19:48:02.929Z,6.03
2023-05-09T19:50:40.991Z,6.40
2023-05-09T19:53:14.109Z,6.50
2023-05-09T19:55:50.703Z,6.43
2023-05-09T19:58:20.821Z,7.20
2023-05-09T20:00:51.007Z,7.43
2023-05-09T20:03:20.943Z,7.30
2023-05-09T20:11:28.587Z,7.70
2023-05-09T20:13:59.746Z,7.73
2023-05-09T20:16:31.369Z,7.33
2023-05-09T20:19:02.280Z,8.03
2023-05-09T20:21:34.165Z,6.97
2023-05-09T20:24:07.658Z,7.53
2023-05-09T20:26:38.433Z,7.10
2023-05-09T20:29:09.286Z,8.03
2023-05-09T20:31:39.889Z,8.77
2023-05-09T20:34:11.786Z,7.67
2023-05-09T20:36:43.793Z,7.83
2023-05-09T20:39:18.580Z,8.00
2023-05-09T20:41:50.465Z,7.90
2023-05-09T20:44:22.112Z,7.90
2023-05-09T20:46:53.619Z,8.20
2023-05-09T20:49:24.414Z,8.47
2023-05-09T20:51:55.790Z,7.50
2023-05-09T20:54:26.985Z,7.73
2023-05-09T20:56:56.432Z,7.70
2023-05-09T20:59:25.533Z,7.80
2023-05-09T21:01:55.833Z,8.40
2023-05-09T21:04:25.233Z,7.53
2023-05-09T21:06:54.417Z,8.47
2023-05-09T21:09:23.521Z,7.93
2023-05-09T21:11:54.176Z,7.67
2023-05-09T21:14:23.457Z,7.57
2023-05-09T21:16:55.216Z,7.60
2023-05-09T21:19:24.426Z,7.97
2023-05-09T21:21:53.616Z,7.87
2023-05-09T21:24:22.846Z,7.20
2023-05-09T21:26:53.985Z,7.77
2023-05-09T21:29:23.380Z,7.43
2023-05-09T21:31:52.658Z,7.70
2023-05-09T21:34:22.645Z,8.13
2023-05-09T21:36:51.865Z,7.50
2023-05-09T21:39:21.058Z,7.30
2023-05-09T21:41:50.245Z,8.23
2023-05-09T21:44:20.919Z,8.30
2023-05-09T21:46:50.156Z,7.97
2023-05-09T21:49:21.571Z,8.23
2023-05-09T21:51:50.883Z,8.10
2023-05-09T21:54:21.042Z,8.57
2023-05-09T21:56:50.088Z,8.93
2023-05-09T21:59:22.426Z,8.73
2023-05-09T22:01:51.650Z,9.33
2023-05-09T22:04:20.811Z,9.03
2023-05-09T22:06:50.085Z,9.00
2023-05-09T22:09:19.210Z,8.37
2023-05-09T22:11:48.487Z,8.73
2023-05-09T22:14:17.950Z,8.70
2023-05-09T22:16:48.685Z,8.53
2023-05-09T22:19:17.929Z,7.73
2023-05-09T22:21:48.832Z,7.93
2023-05-09T22:24:18.273Z,8.20
2023-05-09T22:26:47.639Z,8.70
2023-05-09T22:29:17.855Z,7.73
2023-05-09T22:31:48.857Z,9.27
2023-05-09T22:34:18.089Z,7.33
2023-05-09T22:36:47.593Z,8.33
2023-05-09T22:39:16.819Z,8.53
2023-05-09T22:41:46.013Z,7.60
2023-05-09T22:44:15.220Z,8.47
2023-05-09T22:46:44.435Z,7.73
2023-05-09T22:49:15.321Z,8.20
2023-05-09T22:51:44.530Z,8.23
2023-05-09T22:54:13.631Z,8.30
2023-05-09T22:56:43.328Z,7.80
2023-05-09T22:59:12.530Z,8.37
2023-05-09T23:01:41.936Z,8.10
2023-05-09T23:04:11.297Z,7.20
2023-05-09T23:06:41.869Z,7.83
2023-05-09T23:09:11.636Z,7.90
2023-05-09T23:11:40.853Z,7.33
2023-05-09T23:14:10.080Z,8.20
2023-05-09T23:16:39.474Z,7.80
2023-05-09T23:19:08.637Z,8.03
2023-05-09T23:21:38.034Z,7.30
2023-05-09T23:24:09.346Z,7.33
2023-05-09T23:26:38.560Z,7.30
2023-05-09T23:29:07.812Z,6.93
2023-05-09T23:31:37.074Z,7.57
2023-05-09T23:34:06.389Z,7.97
2023-05-09T23:36:35.549Z,7.23
2023-05-09T23:39:04.912Z,7.37
2023-05-09T23:41:35.381Z,8.60
2023-05-09T23:44:04.680Z,7.77
2023-05-09T23:46:34.096Z,6.93
2023-05-09T23:49:04.102Z,7.70
2023-05-09T23:51:34.532Z,7.27
2023-05-09T23:54:03.731Z,7.87
2023-05-09T23:56:33.171Z,7.50
2023-05-09T23:59:03.863Z,7.20
